sensor_id;sensor_type;location;lat;lon;timestamp;temperature;humidity
61255;DHT22;47128;47.530;8.584;2023-02-14T00:00:54;2.40;99.90
61255;DHT22;47128;47.530;8.584;2023-02-14T00:03:19;2.50;99.90
61255;DHT22;47128;47.530;8.584;2023-02-14T00:05:45;2.50;99.90
61255;DHT22;47128;47.530;8.584;2023-02-14T00:08:11;2.40;99.90
61255;DHT22;47128;47.530;8.584;2023-02-14T00:10:36;2.50;99.90
61255;DHT22;47128;47.530;8.584;2023-02-14T00:13:02;2.60;99.90
61255;DHT22;47128;47.530;8.584;2023-02-14T00:15:27;2.50;99.90
61255;DHT22;47128;47.530;8.584;2023-02-14T00:17:53;2.50;99.90
61255;DHT22;47128;47.530;8.584;2023-02-14T00:20:22;2.50;99.90
61255;DHT22;47128;47.530;8.584;2023-02-14T00:25:13;2.60;99.90
61255;DHT22;47128;47.530;8.584;2023-02-14T00:27:39;2.60;99.90
61255;DHT22;47128;47.530;8.584;2023-02-14T00:30:06;2.60;99.90
61255;DHT22;47128;47.530;8.584;2023-02-14T00:32:31;2.60;99.90
61255;DHT22;47128;47.530;8.584;2023-02-14T00:34:57;2.60;99.90
61255;DHT22;47128;47.530;8.584;2023-02-14T00:37:23;2.60;99.90
61255;DHT22;47128;47.530;8.584;2023-02-14T00:39:48;2.70;99.90
61255;DHT22;47128;47.530;8.584;2023-02-14T00:42:14;2.70;99.90
61255;DHT22;47128;47.530;8.584;2023-02-14T00:44:40;2.70;99.90
61255;DHT22;47128;47.530;8.584;2023-02-14T00:47:06;2.70;99.90
61255;DHT22;47128;47.530;8.584;2023-02-14T00:49:31;2.70;99.90
61255;DHT22;47128;47.530;8.584;2023-02-14T00:51:57;2.70;99.90
61255;DHT22;47128;47.530;8.584;2023-02-14T00:54:22;2.70;99.90
61255;DHT22;47128;47.530;8.584;2023-02-14T00:56:48;2.60;99.90
61255;DHT22;47128;47.530;8.584;2023-02-14T00:59:13;2.60;99.90
61255;DHT22;47128;47.530;8.584;2023-02-14T01:01:39;2.60;99.90
61255;DHT22;47128;47.530;8.584;2023-02-14T01:04:04;2.60;99.90
61255;DHT22;47128;47.530;8.584;2023-02-14T01:06:30;2.60;99.90
61255;DHT22;47128;47.530;8.584;2023-02-14T01:08:55;2.60;99.90
61255;DHT22;47128;47.530;8.584;2023-02-14T01:11:21;2.60;99.90
61255;DHT22;47128;47.530;8.584;2023-02-14T01:13:48;2.50;99.90
61255;DHT22;47128;47.530;8.584;2023-02-14T01:16:15;2.50;99.90
61255;DHT22;47128;47.530;8.584;2023-02-14T01:18:41;2.50;99.90
61255;DHT22;47128;47.530;8.584;2023-02-14T01:23:38;2.50;99.90
61255;DHT22;47128;47.530;8.584;2023-02-14T01:26:07;2.40;99.90
61255;DHT22;47128;47.530;8.584;2023-02-14T01:28:33;2.50;99.90
61255;DHT22;47128;47.530;8.584;2023-02-14T01:31:11;2.50;99.90
61255;DHT22;47128;47.530;8.584;2023-02-14T01:33:37;2.50;99.90
61255;DHT22;47128;47.530;8.584;2023-02-14T01:36:03;2.40;99.90
61255;DHT22;47128;47.530;8.584;2023-02-14T01:38:29;2.40;99.90
61255;DHT22;47128;47.530;8.584;2023-02-14T01:40:54;2.40;99.90
61255;DHT22;47128;47.530;8.584;2023-02-14T01:43:20;2.40;99.90
61255;DHT22;47128;47.530;8.584;2023-02-14T01:45:45;2.40;99.90
61255;DHT22;47128;47.530;8.584;2023-02-14T01:48:11;2.30;99.90
61255;DHT22;47128;47.530;8.584;2023-02-14T01:50:38;2.30;99.90
61255;DHT22;47128;47.530;8.584;2023-02-14T01:53:05;2.30;99.90
61255;DHT22;47128;47.530;8.584;2023-02-14T01:55:35;2.30;99.90
61255;DHT22;47128;47.530;8.584;2023-02-14T01:58:03;2.30;99.90
61255;DHT22;47128;47.530;8.584;2023-02-14T02:00:29;2.20;99.90
61255;DHT22;47128;47.530;8.584;2023-02-14T02:03:13;2.30;99.90
61255;DHT22;47128;47.530;8.584;2023-02-14T02:05:41;2.30;99.90
61255;DHT22;47128;47.530;8.584;2023-02-14T02:08:09;2.20;99.90
61255;DHT22;47128;47.530;8.584;2023-02-14T02:10:34;2.20;99.90
61255;DHT22;47128;47.530;8.584;2023-02-14T02:13:01;2.20;99.90
61255;DHT22;47128;47.530;8.584;2023-02-14T02:15:27;2.20;99.90
61255;DHT22;47128;47.530;8.584;2023-02-14T02:19:01;2.20;99.90
61255;DHT22;47128;47.530;8.584;2023-02-14T02:24:00;2.20;99.90
61255;DHT22;47128;47.530;8.584;2023-02-14T02:34:05;2.20;99.90
61255;DHT22;47128;47.530;8.584;2023-02-14T02:41:54;2.10;99.90
61255;DHT22;47128;47.530;8.584;2023-02-14T02:47:03;2.10;99.90
61255;DHT22;47128;47.530;8.584;2023-02-14T02:52:28;2.10;99.90
61255;DHT22;47128;47.530;8.584;2023-02-14T02:55:16;2.10;99.90
61255;DHT22;47128;47.530;8.584;2023-02-14T02:57:44;2.10;99.90
61255;DHT22;47128;47.530;8.584;2023-02-14T03:00:10;2.10;99.90
61255;DHT22;47128;47.530;8.584;2023-02-14T03:02:39;2.10;99.90
61255;DHT22;47128;47.530;8.584;2023-02-14T03:05:24;2.20;99.90
61255;DHT22;47128;47.530;8.584;2023-02-14T03:07:51;2.20;99.90
61255;DHT22;47128;47.530;8.584;2023-02-14T03:10:18;2.10;99.90
61255;DHT22;47128;47.530;8.584;2023-02-14T03:12:56;2.10;99.90
61255;DHT22;47128;47.530;8.584;2023-02-14T03:20:48;2.20;99.90
61255;DHT22;47128;47.530;8.584;2023-02-14T03:23:19;2.10;99.90
61255;DHT22;47128;47.530;8.584;2023-02-14T03:38:26;2.00;99.90
61255;DHT22;47128;47.530;8.584;2023-02-14T03:40:59;2.00;99.90
61255;DHT22;47128;47.530;8.584;2023-02-14T03:43:27;2.00;99.90
61255;DHT22;47128;47.530;8.584;2023-02-14T03:45:56;2.00;99.90
61255;DHT22;47128;47.530;8.584;2023-02-14T03:48:22;2.00;99.90
61255;DHT22;47128;47.530;8.584;2023-02-14T03:50:49;2.10;99.90
61255;DHT22;47128;47.530;8.584;2023-02-14T03:53:16;2.00;99.90
61255;DHT22;47128;47.530;8.584;2023-02-14T03:55:46;2.10;99.90
61255;DHT22;47128;47.530;8.584;2023-02-14T03:58:16;2.10;99.90
61255;DHT22;47128;47.530;8.584;2023-02-14T04:00:42;2.10;99.90
61255;DHT22;47128;47.530;8.584;2023-02-14T04:03:09;2.10;99.90
61255;DHT22;47128;47.530;8.584;2023-02-14T04:05:38;2.10;99.90
61255;DHT22;47128;47.530;8.584;2023-02-14T04:08:08;2.10;99.90
61255;DHT22;47128;47.530;8.584;2023-02-14T04:10:34;2.10;99.90
61255;DHT22;47128;47.530;8.584;2023-02-14T04:12:59;2.00;99.90
61255;DHT22;47128;47.530;8.584;2023-02-14T04:15:25;2.00;99.90
61255;DHT22;47128;47.530;8.584;2023-02-14T04:17:50;2.00;99.90
61255;DHT22;47128;47.530;8.584;2023-02-14T04:20:35;2.00;99.90
61255;DHT22;47128;47.530;8.584;2023-02-14T04:23:01;1.90;99.90
61255;DHT22;47128;47.530;8.584;2023-02-14T04:25:27;1.90;99.90
61255;DHT22;47128;47.530;8.584;2023-02-14T04:27:52;1.90;99.90
61255;DHT22;47128;47.530;8.584;2023-02-14T04:30:18;1.80;99.90
61255;DHT22;47128;47.530;8.584;2023-02-14T04:32:45;1.80;99.90
61255;DHT22;47128;47.530;8.584;2023-02-14T04:35:10;1.80;99.90
61255;DHT22;47128;47.530;8.584;2023-02-14T04:37:36;1.80;99.90
61255;DHT22;47128;47.530;8.584;2023-02-14T04:40:01;1.80;99.90
61255;DHT22;47128;47.530;8.584;2023-02-14T04:42:27;1.80;99.90
61255;DHT22;47128;47.530;8.584;2023-02-14T04:44:52;1.80;99.90
61255;DHT22;47128;47.530;8.584;2023-02-14T04:47:18;1.80;99.90
61255;DHT22;47128;47.530;8.584;2023-02-14T04:49:43;1.80;99.90
61255;DHT22;47128;47.530;8.584;2023-02-14T04:52:09;1.80;99.90
61255;DHT22;47128;47.530;8.584;2023-02-14T04:54:34;1.80;99.90
61255;DHT22;47128;47.530;8.584;2023-02-14T04:57:00;1.70;99.90
61255;DHT22;47128;47.530;8.584;2023-02-14T04:59:25;1.70;99.90
61255;DHT22;47128;47.530;8.584;2023-02-14T05:01:51;1.70;99.90
61255;DHT22;47128;47.530;8.584;2023-02-14T05:04:17;1.70;99.90
61255;DHT22;47128;47.530;8.584;2023-02-14T05:06:42;1.70;99.90
61255;DHT22;47128;47.530;8.584;2023-02-14T05:09:08;1.60;99.90
61255;DHT22;47128;47.530;8.584;2023-02-14T05:11:33;1.60;99.90
61255;DHT22;47128;47.530;8.584;2023-02-14T05:13:59;1.60;99.90
61255;DHT22;47128;47.530;8.584;2023-02-14T05:16:24;1.70;99.90
61255;DHT22;47128;47.530;8.584;2023-02-14T05:18:50;1.70;99.90
61255;DHT22;47128;47.530;8.584;2023-02-14T05:21:16;1.70;99.90
61255;DHT22;47128;47.530;8.584;2023-02-14T05:23:41;1.60;99.90
61255;DHT22;47128;47.530;8.584;2023-02-14T05:26:07;1.50;99.90
61255;DHT22;47128;47.530;8.584;2023-02-14T05:28:32;1.50;99.90
61255;DHT22;47128;47.530;8.584;2023-02-14T05:30:58;1.50;99.90
61255;DHT22;47128;47.530;8.584;2023-02-14T05:33:23;1.50;99.90
61255;DHT22;47128;47.530;8.584;2023-02-14T05:35:49;1.50;99.90
61255;DHT22;47128;47.530;8.584;2023-02-14T05:38:15;1.50;99.90
61255;DHT22;47128;47.530;8.584;2023-02-14T05:40:41;1.50;99.90
61255;DHT22;47128;47.530;8.584;2023-02-14T05:43:07;1.50;99.90
61255;DHT22;47128;47.530;8.584;2023-02-14T05:45:33;1.60;99.90
61255;DHT22;47128;47.530;8.584;2023-02-14T05:47:59;1.60;99.90
61255;DHT22;47128;47.530;8.584;2023-02-14T05:50:25;1.70;99.90
61255;DHT22;47128;47.530;8.584;2023-02-14T05:52:50;1.70;99.90
61255;DHT22;47128;47.530;8.584;2023-02-14T05:55:16;1.70;99.90
61255;DHT22;47128;47.530;8.584;2023-02-14T05:57:41;1.80;99.90
61255;DHT22;47128;47.530;8.584;2023-02-14T06:00:07;1.80;99.90
61255;DHT22;47128;47.530;8.584;2023-02-14T06:02:33;1.70;99.90
61255;DHT22;47128;47.530;8.584;2023-02-14T06:04:59;1.80;99.90
61255;DHT22;47128;47.530;8.584;2023-02-14T06:07:24;1.80;99.90
61255;DHT22;47128;47.530;8.584;2023-02-14T06:09:50;1.80;99.90
61255;DHT22;47128;47.530;8.584;2023-02-14T06:12:15;1.70;99.90
61255;DHT22;47128;47.530;8.584;2023-02-14T06:14:41;1.70;99.90
61255;DHT22;47128;47.530;8.584;2023-02-14T06:17:07;1.70;99.90
61255;DHT22;47128;47.530;8.584;2023-02-14T06:19:33;1.80;99.90
61255;DHT22;47128;47.530;8.584;2023-02-14T06:21:58;1.70;99.90
61255;DHT22;47128;47.530;8.584;2023-02-14T06:24:24;1.60;99.90
61255;DHT22;47128;47.530;8.584;2023-02-14T06:26:49;1.60;99.90
61255;DHT22;47128;47.530;8.584;2023-02-14T06:29:15;1.70;99.90
61255;DHT22;47128;47.530;8.584;2023-02-14T06:31:40;1.60;99.90
61255;DHT22;47128;47.530;8.584;2023-02-14T06:34:06;1.60;99.90
61255;DHT22;47128;47.530;8.584;2023-02-14T06:36:31;1.60;99.90
61255;DHT22;47128;47.530;8.584;2023-02-14T06:38:57;1.60;99.90
61255;DHT22;47128;47.530;8.584;2023-02-14T06:41:23;1.60;99.90
61255;DHT22;47128;47.530;8.584;2023-02-14T06:43:48;1.50;99.90
61255;DHT22;47128;47.530;8.584;2023-02-14T06:46:14;1.60;99.90
61255;DHT22;47128;47.530;8.584;2023-02-14T06:48:40;1.50;99.90
61255;DHT22;47128;47.530;8.584;2023-02-14T06:51:06;1.50;99.90
61255;DHT22;47128;47.530;8.584;2023-02-14T06:53:31;1.60;99.90
61255;DHT22;47128;47.530;8.584;2023-02-14T06:55:57;1.60;99.90
61255;DHT22;47128;47.530;8.584;2023-02-14T06:58:22;1.60;99.90
61255;DHT22;47128;47.530;8.584;2023-02-14T07:00:48;1.60;99.90
61255;DHT22;47128;47.530;8.584;2023-02-14T07:03:16;1.60;99.90
61255;DHT22;47128;47.530;8.584;2023-02-14T07:05:42;1.60;99.90
61255;DHT22;47128;47.530;8.584;2023-02-14T07:08:19;1.70;99.90
61255;DHT22;47128;47.530;8.584;2023-02-14T07:10:45;1.60;99.90
61255;DHT22;47128;47.530;8.584;2023-02-14T07:13:10;1.70;99.90
61255;DHT22;47128;47.530;8.584;2023-02-14T07:15:36;1.70;99.90
61255;DHT22;47128;47.530;8.584;2023-02-14T07:18:01;1.80;99.90
61255;DHT22;47128;47.530;8.584;2023-02-14T07:20:27;1.80;99.90
61255;DHT22;47128;47.530;8.584;2023-02-14T07:22:53;1.80;99.90
61255;DHT22;47128;47.530;8.584;2023-02-14T07:25:19;1.90;99.90
61255;DHT22;47128;47.530;8.584;2023-02-14T07:27:45;1.90;99.90
61255;DHT22;47128;47.530;8.584;2023-02-14T07:30:11;1.90;99.90
61255;DHT22;47128;47.530;8.584;2023-02-14T07:32:37;1.80;99.90
61255;DHT22;47128;47.530;8.584;2023-02-14T07:35:04;1.80;99.90
61255;DHT22;47128;47.530;8.584;2023-02-14T07:37:34;1.70;99.90
61255;DHT22;47128;47.530;8.584;2023-02-14T07:40:02;1.80;99.90
61255;DHT22;47128;47.530;8.584;2023-02-14T07:42:30;1.80;99.90
61255;DHT22;47128;47.530;8.584;2023-02-14T07:44:58;1.80;99.90
61255;DHT22;47128;47.530;8.584;2023-02-14T07:47:27;1.70;99.90
61255;DHT22;47128;47.530;8.584;2023-02-14T07:49:52;1.70;99.90
61255;DHT22;47128;47.530;8.584;2023-02-14T07:52:19;1.70;99.90
61255;DHT22;47128;47.530;8.584;2023-02-14T07:54:44;1.70;99.90
61255;DHT22;47128;47.530;8.584;2023-02-14T07:57:10;1.80;99.90
61255;DHT22;47128;47.530;8.584;2023-02-14T07:59:40;1.70;99.90
61255;DHT22;47128;47.530;8.584;2023-02-14T08:02:06;1.80;99.90
61255;DHT22;47128;47.530;8.584;2023-02-14T08:04:33;1.70;99.90
61255;DHT22;47128;47.530;8.584;2023-02-14T08:06:58;1.70;99.90
61255;DHT22;47128;47.530;8.584;2023-02-14T08:09:24;1.90;99.90
61255;DHT22;47128;47.530;8.584;2023-02-14T08:11:50;1.90;99.90
61255;DHT22;47128;47.530;8.584;2023-02-14T08:14:36;2.00;99.90
61255;DHT22;47128;47.530;8.584;2023-02-14T08:17:01;2.10;99.90
61255;DHT22;47128;47.530;8.584;2023-02-14T08:19:27;2.00;99.90
61255;DHT22;47128;47.530;8.584;2023-02-14T08:21:54;2.10;99.90
61255;DHT22;47128;47.530;8.584;2023-02-14T08:27:02;2.20;99.90
61255;DHT22;47128;47.530;8.584;2023-02-14T08:29:30;2.20;99.90
61255;DHT22;47128;47.530;8.584;2023-02-14T08:31:56;2.30;99.90
61255;DHT22;47128;47.530;8.584;2023-02-14T08:34:28;2.40;99.90
61255;DHT22;47128;47.530;8.584;2023-02-14T08:36:54;2.40;99.90
61255;DHT22;47128;47.530;8.584;2023-02-14T08:39:20;2.50;99.90
61255;DHT22;47128;47.530;8.584;2023-02-14T08:41:52;2.40;99.90
61255;DHT22;47128;47.530;8.584;2023-02-14T08:44:21;2.30;99.90
61255;DHT22;47128;47.530;8.584;2023-02-14T08:46:47;2.30;99.90
61255;DHT22;47128;47.530;8.584;2023-02-14T08:49:13;2.30;99.90
61255;DHT22;47128;47.530;8.584;2023-02-14T08:51:50;2.30;99.90
61255;DHT22;47128;47.530;8.584;2023-02-14T08:54:16;2.30;99.90
61255;DHT22;47128;47.530;8.584;2023-02-14T08:56:41;2.40;99.90
61255;DHT22;47128;47.530;8.584;2023-02-14T08:59:13;2.50;99.90
61255;DHT22;47128;47.530;8.584;2023-02-14T09:01:43;2.50;99.90
61255;DHT22;47128;47.530;8.584;2023-02-14T09:04:10;2.40;99.90
61255;DHT22;47128;47.530;8.584;2023-02-14T09:09:07;2.50;99.90
61255;DHT22;47128;47.530;8.584;2023-02-14T09:11:35;2.50;99.90
61255;DHT22;47128;47.530;8.584;2023-02-14T09:14:01;2.60;99.90
61255;DHT22;47128;47.530;8.584;2023-02-14T09:16:30;2.50;99.90
61255;DHT22;47128;47.530;8.584;2023-02-14T09:18:58;2.60;99.90
61255;DHT22;47128;47.530;8.584;2023-02-14T09:21:25;2.70;99.90
61255;DHT22;47128;47.530;8.584;2023-02-14T09:23:52;2.70;99.90
61255;DHT22;47128;47.530;8.584;2023-02-14T09:26:19;2.50;99.90
61255;DHT22;47128;47.530;8.584;2023-02-14T09:28:45;2.60;99.90
61255;DHT22;47128;47.530;8.584;2023-02-14T09:31:11;2.60;99.90
61255;DHT22;47128;47.530;8.584;2023-02-14T09:33:38;2.70;99.90
61255;DHT22;47128;47.530;8.584;2023-02-14T09:36:04;2.50;99.90
61255;DHT22;47128;47.530;8.584;2023-02-14T09:38:38;2.60;99.90
61255;DHT22;47128;47.530;8.584;2023-02-14T09:41:05;2.60;99.90
61255;DHT22;47128;47.530;8.584;2023-02-14T09:43:36;2.80;99.90
61255;DHT22;47128;47.530;8.584;2023-02-14T09:46:08;2.70;99.90
61255;DHT22;47128;47.530;8.584;2023-02-14T09:48:37;2.70;99.90
61255;DHT22;47128;47.530;8.584;2023-02-14T09:51:16;3.00;99.90
61255;DHT22;47128;47.530;8.584;2023-02-14T09:53:46;3.00;99.90
61255;DHT22;47128;47.530;8.584;2023-02-14T09:59:08;3.00;99.90
61255;DHT22;47128;47.530;8.584;2023-02-14T10:04:17;3.00;99.90
61255;DHT22;47128;47.530;8.584;2023-02-14T10:09:27;2.70;99.90
61255;DHT22;47128;47.530;8.584;2023-02-14T10:11:54;2.70;99.90
61255;DHT22;47128;47.530;8.584;2023-02-14T10:14:23;2.80;99.90
61255;DHT22;47128;47.530;8.584;2023-02-14T10:22:22;3.20;99.90
61255;DHT22;47128;47.530;8.584;2023-02-14T10:29:56;3.10;99.90
61255;DHT22;47128;47.530;8.584;2023-02-14T10:32:26;3.10;99.90
61255;DHT22;47128;47.530;8.584;2023-02-14T10:40:18;3.20;99.90
61255;DHT22;47128;47.530;8.584;2023-02-14T10:45:19;3.40;99.90
61255;DHT22;47128;47.530;8.584;2023-02-14T10:47:56;3.50;99.90
61255;DHT22;47128;47.530;8.584;2023-02-14T10:50:26;3.50;99.90
61255;DHT22;47128;47.530;8.584;2023-02-14T10:53:11;3.40;99.90
61255;DHT22;47128;47.530;8.584;2023-02-14T10:55:39;3.50;99.90
61255;DHT22;47128;47.530;8.584;2023-02-14T10:58:08;3.40;99.90
61255;DHT22;47128;47.530;8.584;2023-02-14T11:00:38;3.50;99.90
61255;DHT22;47128;47.530;8.584;2023-02-14T11:03:07;3.50;99.90
61255;DHT22;47128;47.530;8.584;2023-02-14T11:08:05;3.50;99.90
61255;DHT22;47128;47.530;8.584;2023-02-14T11:10:47;3.50;99.90
61255;DHT22;47128;47.530;8.584;2023-02-14T11:16:17;3.40;99.90
61255;DHT22;47128;47.530;8.584;2023-02-14T11:21:12;3.60;99.90
61255;DHT22;47128;47.530;8.584;2023-02-14T11:23:43;3.40;99.90
61255;DHT22;47128;47.530;8.584;2023-02-14T11:26:10;3.40;99.90
61255;DHT22;47128;47.530;8.584;2023-02-14T11:28:52;3.70;99.90
61255;DHT22;47128;47.530;8.584;2023-02-14T11:31:28;3.80;99.90
61255;DHT22;47128;47.530;8.584;2023-02-14T11:33:54;4.00;99.90
61255;DHT22;47128;47.530;8.584;2023-02-14T11:36:21;4.00;99.90
61255;DHT22;47128;47.530;8.584;2023-02-14T11:38:53;3.90;99.90
61255;DHT22;47128;47.530;8.584;2023-02-14T11:41:19;3.80;99.90
61255;DHT22;47128;47.530;8.584;2023-02-14T11:43:47;3.80;99.90
61255;DHT22;47128;47.530;8.584;2023-02-14T11:46:16;3.80;99.90
61255;DHT22;47128;47.530;8.584;2023-02-14T11:49:12;3.90;99.90
61255;DHT22;47128;47.530;8.584;2023-02-14T11:51:42;4.10;99.90
61255;DHT22;47128;47.530;8.584;2023-02-14T11:57:00;4.60;99.90
61255;DHT22;47128;47.530;8.584;2023-02-14T12:01:54;5.80;99.90
61255;DHT22;47128;47.530;8.584;2023-02-14T12:04:24;6.30;99.90
61255;DHT22;47128;47.530;8.584;2023-02-14T12:06:51;6.60;98.80
61255;DHT22;47128;47.530;8.584;2023-02-14T12:14:21;7.40;96.70
61255;DHT22;47128;47.530;8.584;2023-02-14T12:19:21;8.30;95.00
61255;DHT22;47128;47.530;8.584;2023-02-14T12:21:55;9.20;93.50
61255;DHT22;47128;47.530;8.584;2023-02-14T12:29:44;14.40;76.00
61255;DHT22;47128;47.530;8.584;2023-02-14T12:32:15;14.90;74.10
61255;DHT22;47128;47.530;8.584;2023-02-14T12:34:42;15.30;72.10
61255;DHT22;47128;47.530;8.584;2023-02-14T12:42:33;15.60;66.90
61255;DHT22;47128;47.530;8.584;2023-02-14T12:45:08;15.80;66.40
61255;DHT22;47128;47.530;8.584;2023-02-14T12:50:37;16.60;65.40
61255;DHT22;47128;47.530;8.584;2023-02-14T12:58:27;16.50;64.20
61255;DHT22;47128;47.530;8.584;2023-02-14T13:01:11;16.50;64.30
61255;DHT22;47128;47.530;8.584;2023-02-14T13:06:21;15.30;66.20
61255;DHT22;47128;47.530;8.584;2023-02-14T13:09:01;15.20;66.20
61255;DHT22;47128;47.530;8.584;2023-02-14T13:11:35;14.90;66.40
61255;DHT22;47128;47.530;8.584;2023-02-14T13:16:36;12.40;71.90
61255;DHT22;47128;47.530;8.584;2023-02-14T13:19:12;11.10;75.80
61255;DHT22;47128;47.530;8.584;2023-02-14T13:21:42;9.60;81.00
61255;DHT22;47128;47.530;8.584;2023-02-14T13:24:17;9.40;84.20
61255;DHT22;47128;47.530;8.584;2023-02-14T13:26:44;9.00;87.00
61255;DHT22;47128;47.530;8.584;2023-02-14T13:29:14;8.60;89.90
61255;DHT22;47128;47.530;8.584;2023-02-14T13:31:45;8.40;91.10
61255;DHT22;47128;47.530;8.584;2023-02-14T13:36:43;8.20;92.50
61255;DHT22;47128;47.530;8.584;2023-02-14T13:39:10;8.10;92.70
61255;DHT22;47128;47.530;8.584;2023-02-14T13:41:38;8.00;93.40
61255;DHT22;47128;47.530;8.584;2023-02-14T13:44:07;8.10;93.60
61255;DHT22;47128;47.530;8.584;2023-02-14T13:49:20;7.80;94.30
61255;DHT22;47128;47.530;8.584;2023-02-14T13:51:51;7.80;94.90
61255;DHT22;47128;47.530;8.584;2023-02-14T13:54:31;7.80;94.80
61255;DHT22;47128;47.530;8.584;2023-02-14T14:16:33;7.20;99.90
61255;DHT22;47128;47.530;8.584;2023-02-14T14:19:01;7.10;97.80
61255;DHT22;47128;47.530;8.584;2023-02-14T14:21:41;7.10;97.90
61255;DHT22;47128;47.530;8.584;2023-02-14T14:26:44;6.80;98.50
61255;DHT22;47128;47.530;8.584;2023-02-14T14:29:27;6.90;98.70
61255;DHT22;47128;47.530;8.584;2023-02-14T14:31:57;7.00;98.20
61255;DHT22;47128;47.530;8.584;2023-02-14T14:34:24;7.00;98.30
61255;DHT22;47128;47.530;8.584;2023-02-14T14:37:04;6.90;98.50
61255;DHT22;47128;47.530;8.584;2023-02-14T14:39:31;7.00;98.60
61255;DHT22;47128;47.530;8.584;2023-02-14T14:42:12;6.90;98.70
61255;DHT22;47128;47.530;8.584;2023-02-14T14:47:10;6.80;99.10
61255;DHT22;47128;47.530;8.584;2023-02-14T14:49:36;6.80;99.00
61255;DHT22;47128;47.530;8.584;2023-02-14T14:52:03;6.70;99.20
61255;DHT22;47128;47.530;8.584;2023-02-14T14:54:30;6.60;99.60
61255;DHT22;47128;47.530;8.584;2023-02-14T14:56:58;6.60;99.80
61255;DHT22;47128;47.530;8.584;2023-02-14T14:59:31;6.60;99.90
61255;DHT22;47128;47.530;8.584;2023-02-14T15:04:46;6.30;99.90
61255;DHT22;47128;47.530;8.584;2023-02-14T15:07:16;6.30;99.90
61255;DHT22;47128;47.530;8.584;2023-02-14T15:09:42;6.30;99.90
61255;DHT22;47128;47.530;8.584;2023-02-14T15:12:08;6.20;99.90
61255;DHT22;47128;47.530;8.584;2023-02-14T15:15:10;6.20;99.90
61255;DHT22;47128;47.530;8.584;2023-02-14T15:17:36;6.20;99.90
61255;DHT22;47128;47.530;8.584;2023-02-14T15:20:08;6.10;99.90
61255;DHT22;47128;47.530;8.584;2023-02-14T15:22:42;5.90;99.90
61255;DHT22;47128;47.530;8.584;2023-02-14T15:25:10;5.80;99.90
61255;DHT22;47128;47.530;8.584;2023-02-14T15:27:40;5.70;99.90
61255;DHT22;47128;47.530;8.584;2023-02-14T15:32:46;5.70;99.90
61255;DHT22;47128;47.530;8.584;2023-02-14T15:35:26;5.70;99.90
61255;DHT22;47128;47.530;8.584;2023-02-14T15:37:53;5.80;99.90
61255;DHT22;47128;47.530;8.584;2023-02-14T15:40:24;5.80;99.90
61255;DHT22;47128;47.530;8.584;2023-02-14T15:42:51;5.70;99.90
61255;DHT22;47128;47.530;8.584;2023-02-14T15:45:27;5.60;99.90
61255;DHT22;47128;47.530;8.584;2023-02-14T15:47:54;5.50;99.90
61255;DHT22;47128;47.530;8.584;2023-02-14T15:50:20;5.40;99.90
61255;DHT22;47128;47.530;8.584;2023-02-14T15:52:48;5.40;99.90
61255;DHT22;47128;47.530;8.584;2023-02-14T15:55:16;5.20;99.90
61255;DHT22;47128;47.530;8.584;2023-02-14T15:57:43;5.10;99.90
61255;DHT22;47128;47.530;8.584;2023-02-14T16:00:20;4.90;99.90
61255;DHT22;47128;47.530;8.584;2023-02-14T16:02:49;4.80;99.90
61255;DHT22;47128;47.530;8.584;2023-02-14T16:05:16;4.70;99.90
61255;DHT22;47128;47.530;8.584;2023-02-14T16:07:54;4.70;99.90
61255;DHT22;47128;47.530;8.584;2023-02-14T16:10:28;4.70;99.90
61255;DHT22;47128;47.530;8.584;2023-02-14T16:12:55;4.60;99.90
61255;DHT22;47128;47.530;8.584;2023-02-14T16:15:21;4.50;99.90
61255;DHT22;47128;47.530;8.584;2023-02-14T16:17:47;4.50;99.90
61255;DHT22;47128;47.530;8.584;2023-02-14T16:20:20;4.40;99.90
61255;DHT22;47128;47.530;8.584;2023-02-14T16:22:47;4.40;99.90
61255;DHT22;47128;47.530;8.584;2023-02-14T16:25:13;4.30;99.90
61255;DHT22;47128;47.530;8.584;2023-02-14T16:27:38;4.20;99.90
61255;DHT22;47128;47.530;8.584;2023-02-14T16:30:04;4.10;99.90
61255;DHT22;47128;47.530;8.584;2023-02-14T16:32:38;4.10;99.90
61255;DHT22;47128;47.530;8.584;2023-02-14T16:35:04;3.90;99.90
61255;DHT22;47128;47.530;8.584;2023-02-14T16:37:30;3.90;99.90
61255;DHT22;47128;47.530;8.584;2023-02-14T16:39:57;3.80;99.90
61255;DHT22;47128;47.530;8.584;2023-02-14T16:42:24;3.80;99.90
61255;DHT22;47128;47.530;8.584;2023-02-14T16:44:49;3.70;99.90
61255;DHT22;47128;47.530;8.584;2023-02-14T16:47:15;3.60;99.90
61255;DHT22;47128;47.530;8.584;2023-02-14T16:49:41;3.60;99.90
61255;DHT22;47128;47.530;8.584;2023-02-14T16:52:16;3.60;99.90
61255;DHT22;47128;47.530;8.584;2023-02-14T16:54:42;3.50;99.90
61255;DHT22;47128;47.530;8.584;2023-02-14T16:57:10;3.50;99.90
61255;DHT22;47128;47.530;8.584;2023-02-14T16:59:37;3.40;99.90
61255;DHT22;47128;47.530;8.584;2023-02-14T17:02:03;3.40;99.90
61255;DHT22;47128;47.530;8.584;2023-02-14T17:04:28;3.40;99.90
61255;DHT22;47128;47.530;8.584;2023-02-14T17:06:54;3.30;99.90
61255;DHT22;47128;47.530;8.584;2023-02-14T17:09:26;3.30;99.90
61255;DHT22;47128;47.530;8.584;2023-02-14T17:11:53;3.30;99.90
61255;DHT22;47128;47.530;8.584;2023-02-14T17:14:21;3.20;99.90
61255;DHT22;47128;47.530;8.584;2023-02-14T17:16:48;3.20;99.90
61255;DHT22;47128;47.530;8.584;2023-02-14T17:19:14;3.10;99.90
61255;DHT22;47128;47.530;8.584;2023-02-14T17:21:40;3.10;99.90
61255;DHT22;47128;47.530;8.584;2023-02-14T17:26:31;2.90;99.90
61255;DHT22;47128;47.530;8.584;2023-02-14T17:28:58;2.90;99.90
61255;DHT22;47128;47.530;8.584;2023-02-14T17:31:23;2.90;99.90
61255;DHT22;47128;47.530;8.584;2023-02-14T17:33:49;2.80;99.90
61255;DHT22;47128;47.530;8.584;2023-02-14T17:36:14;2.70;99.90
61255;DHT22;47128;47.530;8.584;2023-02-14T17:38:40;2.70;99.90
61255;DHT22;47128;47.530;8.584;2023-02-14T17:43:36;2.70;99.90
61255;DHT22;47128;47.530;8.584;2023-02-14T17:46:04;2.70;99.90
61255;DHT22;47128;47.530;8.584;2023-02-14T17:48:30;2.60;99.90
61255;DHT22;47128;47.530;8.584;2023-02-14T17:50:55;2.60;99.90
61255;DHT22;47128;47.530;8.584;2023-02-14T17:53:21;2.50;99.90
61255;DHT22;47128;47.530;8.584;2023-02-14T17:55:46;2.50;99.90
61255;DHT22;47128;47.530;8.584;2023-02-14T17:58:12;2.40;99.90
61255;DHT22;47128;47.530;8.584;2023-02-14T18:00:38;2.40;99.90
61255;DHT22;47128;47.530;8.584;2023-02-14T18:03:03;2.40;99.90
61255;DHT22;47128;47.530;8.584;2023-02-14T18:05:29;2.30;99.90
61255;DHT22;47128;47.530;8.584;2023-02-14T18:07:54;2.30;99.90
61255;DHT22;47128;47.530;8.584;2023-02-14T18:10:20;2.30;99.90
61255;DHT22;47128;47.530;8.584;2023-02-14T18:12:45;2.30;99.90
61255;DHT22;47128;47.530;8.584;2023-02-14T18:15:11;2.20;99.90
61255;DHT22;47128;47.530;8.584;2023-02-14T18:17:36;2.30;99.90
61255;DHT22;47128;47.530;8.584;2023-02-14T18:20:02;2.10;99.90
61255;DHT22;47128;47.530;8.584;2023-02-14T18:22:30;2.00;99.90
61255;DHT22;47128;47.530;8.584;2023-02-14T18:24:55;2.00;99.90
61255;DHT22;47128;47.530;8.584;2023-02-14T18:27:23;1.90;99.90
61255;DHT22;47128;47.530;8.584;2023-02-14T18:29:49;1.90;99.90
61255;DHT22;47128;47.530;8.584;2023-02-14T18:34:40;1.70;99.90